ADDS METAR Data INFO
IDs: Format: Raw Decoded Include TAF

Data at: 0550 UTC 11 Dec 2017

KDNL 110453Z AUTO 27003KT 10SM CLR 04/M04 A3024 RMK AO2 SLP242 T00391039 401061006 $
KDNL 110353Z AUTO VRB03KT 10SM CLR 04/M04 A3024 RMK AO2 SLP240 T00441039 $
KDNL 110253Z AUTO 00000KT 10SM CLR 04/M04 A3022 RMK AO2 SLP236 T00441039 53001 $
KDNL 110153Z AUTO 00000KT 10SM CLR 04/M03 A3021 RMK AO2 SLP233 T00441033 $
KDNL 110053Z AUTO 00000KT 10SM CLR 06/M03 A3022 RMK AO2 SLP234 T00561033 $
KDNL 102353Z AUTO 00000KT 10SM CLR 06/M04 A3022 RMK AO2 SLP235 T00611039 10106 20061 53010 $
KDNL 102253Z AUTO 00000KT 10SM CLR 08/M05 A3020 RMK AO2 SLP229 T00781050 $
KDNL 102153Z AUTO 24004KT 10SM CLR 09/M06 A3020 RMK AO2 SLP226 T00941061 $
KDNL 102053Z AUTO 27005KT 10SM CLR 10/M06 A3019 RMK AO2 SLP224 T01001056 56015 $
KDNL 101953Z AUTO VRB05KT 10SM CLR 10/M05 A3020 RMK AO2 SLP228 T01001050 $
KDNL 101853Z AUTO VRB03KT 10SM CLR 09/M05 A3021 RMK AO2 SLP232 T00941050 $
KDNL 101838Z AUTO VRB04KT 4SM HZ CLR 09/M05 A3021 RMK AO2 T00891050 $
KDNL 101835Z AUTO 26004KT 3/4SM HZ CLR 08/M05 A3022 RMK AO2 T00831050 RVRNO $
KDNL 101753Z AUTO VRB04KT 10SM CLR 08/M05 A3024 RMK AO2 SLP240 T00781050 10078 21006 58014
KDNL 101653Z AUTO VRB05KT 10SM CLR 07/M05 A3026 RMK AO2 SLP248 T00671050
KDNL 101553Z AUTO 33004KT 10SM CLR 05/M05 A3028 RMK AO2 SLP255 T00501050
KDNL 101453Z AUTO 30005KT 10SM CLR 03/M05 A3028 RMK AO2 SLP254 T00331050 51012
KDNL 101353Z AUTO 30008KT 10SM CLR 02/M05 A3027 RMK AO2 SLP251 T00171050
KDNL 101253Z AUTO 29005KT 10SM CLR 00/M05 A3026 RMK AO2 SLP248 T00001050
KDNL 101153Z AUTO 29005KT 10SM CLR M01/M05 A3024 RMK AO2 SLP243 T10061050 10022 21006 53023
KDNL 101053Z AUTO 28004KT 10SM CLR 00/M04 A3021 RMK AO2 SLP232 T00001044
KDNL 100953Z AUTO 29006KT 10SM CLR 00/M04 A3018 RMK AO2 SLP222 T00001039
KDNL 100853Z AUTO 28005KT 10SM CLR 01/M03 A3017 RMK AO2 SLP219 T00061033 53020
KDNL 100753Z AUTO 29006KT 10SM CLR 01/M03 A3015 RMK AO2 SLP212 T00111028
KDNL 100653Z AUTO 29007KT 10SM CLR 02/M03 A3013 RMK AO2 SLP205 T00171028
KDNL 100553Z AUTO 29007KT 10SM CLR 02/M03 A3011 RMK AO2 SLP199 T00221028 10044 20022 51016
KDNL 100453Z AUTO 28007KT 10SM CLR 02/M03 A3010 RMK AO2 SLP196 T00221028 400670022
KDNL 100353Z AUTO VRB05KT 10SM CLR 02/M03 A3009 RMK AO2 SLP191 T00221033
KDNL 100253Z AUTO 26007KT 210V300 10SM CLR 03/M04 A3007 RMK AO2 SLP183 T00281039 51023
KDNL 100153Z AUTO 28007KT 240V320 10SM CLR 04/M04 A3005 RMK AO2 SLP176 T00391044
KDNL 100053Z AUTO 27005KT 10SM CLR 04/M03 A3003 RMK AO2 SLP169 T00391028
KDNL 092353Z AUTO VRB06KT 10SM CLR 04/00 A3000 RMK AO2 SLP159 T00440000 10067 20044 53024
KDNL 092253Z AUTO 23005KT 10SM CLR 05/00 A2995 RMK AO2 SLP142 T00500000
KDNL 092153Z AUTO VRB03KT 10SM FEW023 06/02 A2993 RMK AO2 SLP137 T00610017
KDNL 092113Z AUTO VRB06KT 10SM FEW017 SCT023 06/02 A2992 RMK AO2 T00610022
KDNL 092053Z AUTO VRB03KT 10SM SCT013 SCT018 BKN023 06/03 A2992 RMK AO2 SLP133 T00610028 53011
KDNL 091953Z AUTO 27006KT 10SM BKN012 OVC022 06/03 A2991 RMK AO2 SLP130 T00560028
KDNL 091853Z AUTO 26005KT 10SM OVC013 06/03 A2990 RMK AO2 SLP125 T00560028
KDNL 091824Z AUTO VRB04KT 10SM BKN010 OVC015 06/03 A2990 RMK AO2 T00560033
KDNL 091753Z AUTO VRB03KT 10SM BKN009 OVC013 05/03 A2989 RMK AO2 RAE51 SLP123 P0000 60000 T00500033 10056 20039 58004